createdAt,value
2022-12-18T00:01:37.353Z,1.40
2022-12-18T00:04:06.169Z,1.40
2022-12-18T00:06:33.990Z,1.40
2022-12-18T00:09:01.195Z,1.40
2022-12-18T00:11:30.470Z,1.40
2022-12-18T00:13:58.716Z,1.40
2022-12-18T00:16:27.079Z,1.30
2022-12-18T00:18:55.728Z,1.30
2022-12-18T00:21:23.031Z,1.30
2022-12-18T00:23:51.294Z,1.30
2022-12-18T00:26:32.641Z,1.30
2022-12-18T00:29:01.487Z,1.30
2022-12-18T00:31:29.103Z,1.30
2022-12-18T00:33:59.317Z,1.30
2022-12-18T00:36:28.618Z,1.30
2022-12-18T00:38:57.161Z,1.20
2022-12-18T00:41:43.314Z,1.20
2022-12-18T00:44:12.853Z,1.20
2022-12-18T00:46:39.652Z,1.20
2022-12-18T00:49:07.339Z,1.20
2022-12-18T00:51:33.940Z,1.10
2022-12-18T00:54:00.638Z,1.10
2022-12-18T00:56:27.276Z,1.10
2022-12-18T00:58:54.035Z,1.10
2022-12-18T01:01:20.994Z,1.10
2022-12-18T01:03:47.863Z,1.10
2022-12-18T01:06:15.980Z,1.10
2022-12-18T01:08:43.488Z,1.10
2022-12-18T01:11:16.375Z,1.10
2022-12-18T01:13:43.869Z,1.10
2022-12-18T01:16:13.495Z,1.10
2022-12-18T01:18:40.732Z,1.00
2022-12-18T01:21:12.650Z,1.00
2022-12-18T01:23:39.733Z,1.00
2022-12-18T01:26:12.894Z,1.00
2022-12-18T01:28:39.831Z,1.00
2022-12-18T01:31:23.176Z,1.00
2022-12-18T01:33:51.026Z,0.90
2022-12-18T01:36:18.393Z,1.00
2022-12-18T01:38:45.349Z,1.00
2022-12-18T01:41:12.937Z,0.90
2022-12-18T01:43:53.345Z,0.90
2022-12-18T01:46:23.070Z,0.90
2022-12-18T01:48:54.922Z,0.90
2022-12-18T01:51:22.226Z,0.90
2022-12-18T01:53:49.321Z,0.90
2022-12-18T01:56:18.729Z,0.80
2022-12-18T01:58:57.289Z,0.80
2022-12-18T02:01:24.919Z,0.80
2022-12-18T02:03:52.426Z,0.80
2022-12-18T02:06:26.313Z,0.80
2022-12-18T02:09:23.286Z,0.80
2022-12-18T02:12:00.635Z,0.80
2022-12-18T02:14:39.969Z,0.80
2022-12-18T02:17:24.568Z,0.80
2022-12-18T02:20:19.084Z,0.80
2022-12-18T02:22:53.760Z,0.80
2022-12-18T02:25:20.311Z,0.70
2022-12-18T02:27:50.219Z,0.80
2022-12-18T02:30:17.225Z,0.80
2022-12-18T02:32:53.976Z,0.70
2022-12-18T02:35:26.286Z,0.70
2022-12-18T02:37:54.591Z,0.70
2022-12-18T02:40:24.506Z,0.70
2022-12-18T02:42:51.305Z,0.70
2022-12-18T02:45:18.161Z,0.70
2022-12-18T02:47:48.563Z,0.70
2022-12-18T02:50:30.876Z,0.70
2022-12-18T02:53:29.917Z,0.70
2022-12-18T02:55:59.098Z,0.60
2022-12-18T02:58:48.952Z,0.60
2022-12-18T03:02:03.745Z,0.60
2022-12-18T03:04:48.431Z,0.60
2022-12-18T03:07:24.787Z,0.60
2022-12-18T03:09:54.191Z,0.50
2022-12-18T03:12:35.558Z,0.60
2022-12-18T03:15:31.599Z,0.50
2022-12-18T03:18:04.374Z,0.50
2022-12-18T03:20:32.044Z,0.50
2022-12-18T03:23:08.776Z,0.50
2022-12-18T03:25:40.720Z,0.50
2022-12-18T03:28:13.155Z,0.50
2022-12-18T03:30:42.625Z,0.50
2022-12-18T03:33:14.671Z,0.40
2022-12-18T03:35:43.898Z,0.40
2022-12-18T03:38:11.601Z,0.40
2022-12-18T03:40:44.282Z,0.40
2022-12-18T03:43:21.241Z,0.40
2022-12-18T03:46:02.298Z,0.40
2022-12-18T03:48:33.845Z,0.40
2022-12-18T03:51:08.848Z,0.30
2022-12-18T03:53:38.809Z,0.30
2022-12-18T03:56:07.160Z,0.40
2022-12-18T03:58:37.735Z,0.40
2022-12-18T04:01:08.149Z,0.30
2022-12-18T04:03:36.845Z,0.30
2022-12-18T04:06:04.517Z,0.30
2022-12-18T04:08:33.023Z,0.30
2022-12-18T04:11:00.404Z,0.30
2022-12-18T04:13:34.045Z,0.30
2022-12-18T04:16:00.849Z,0.20
2022-12-18T04:18:27.485Z,0.30
2022-12-18T04:20:54.322Z,0.20
2022-12-18T04:23:21.065Z,0.20
2022-12-18T04:25:50.424Z,0.20
2022-12-18T04:28:17.049Z,0.20
2022-12-18T04:30:43.783Z,0.20
2022-12-18T04:33:12.379Z,0.10
2022-12-18T04:35:40.200Z,0.10
2022-12-18T04:38:09.270Z,0.10
2022-12-18T04:40:36.127Z,0.10
2022-12-18T04:43:03.379Z,0.10
2022-12-18T04:45:31.489Z,0.10
2022-12-18T04:47:59.537Z,0.00
2022-12-18T04:50:26.165Z,0.00
2022-12-18T04:52:52.833Z,0.10
2022-12-18T04:55:19.903Z,0.00
2022-12-18T04:57:46.485Z,0.00
2022-12-18T05:00:13.735Z,0.00
2022-12-18T05:02:40.476Z,0.00
2022-12-18T05:05:08.059Z,0.00
2022-12-18T05:07:34.737Z,0.00
2022-12-18T05:10:01.331Z,0.00
2022-12-18T05:12:28.049Z,-0.10
2022-12-18T05:14:54.715Z,-0.10
2022-12-18T05:17:24.092Z,-0.10
2022-12-18T05:19:50.990Z,-0.10
2022-12-18T05:22:17.618Z,-0.10
2022-12-18T05:24:44.291Z,-0.10
2022-12-18T05:27:10.912Z,-0.10
2022-12-18T05:29:37.521Z,-0.10
2022-12-18T05:32:04.305Z,-0.10
2022-12-18T05:34:30.975Z,-0.20
2022-12-18T05:36:57.546Z,-0.10
2022-12-18T05:39:24.072Z,-0.20
2022-12-18T05:41:50.618Z,-0.20
2022-12-18T05:44:17.180Z,-0.20
2022-12-18T05:46:43.821Z,-0.20
2022-12-18T05:49:10.493Z,-0.20
2022-12-18T05:51:37.145Z,-0.20
2022-12-18T05:54:03.951Z,-0.30
2022-12-18T05:56:32.478Z,-0.20
2022-12-18T05:58:59.186Z,-0.20
2022-12-18T06:01:27.704Z,-0.30
2022-12-18T06:03:55.421Z,-0.30
2022-12-18T06:06:27.450Z,-0.30
2022-12-18T06:08:54.853Z,-0.30
2022-12-18T06:11:24.738Z,-0.30
2022-12-18T06:13:59.101Z,-0.30
2022-12-18T06:16:27.523Z,-0.30
2022-12-18T06:18:54.658Z,-0.30
2022-12-18T06:21:21.271Z,-0.30
2022-12-18T06:23:47.979Z,-0.30
2022-12-18T06:26:15.256Z,-0.30
2022-12-18T06:28:42.207Z,-0.40
2022-12-18T06:31:09.848Z,-0.40
2022-12-18T06:33:37.577Z,-0.30
2022-12-18T06:36:07.415Z,-0.30
2022-12-18T06:38:35.796Z,-0.40
2022-12-18T06:41:18.066Z,-0.40
2022-12-18T06:43:45.156Z,-0.40
2022-12-18T06:46:12.862Z,-0.40
2022-12-18T06:48:40.226Z,-0.40
2022-12-18T06:51:06.893Z,-0.40
2022-12-18T06:53:34.016Z,-0.40
2022-12-18T06:56:09.774Z,-0.40
2022-12-18T06:58:36.970Z,-0.40
2022-12-18T07:01:05.731Z,-0.40
2022-12-18T07:03:32.878Z,-0.40
2022-12-18T07:05:59.578Z,-0.40
2022-12-18T07:08:26.331Z,-0.40
2022-12-18T07:10:56.221Z,-0.50
2022-12-18T07:13:23.437Z,-0.40
2022-12-18T07:15:50.118Z,-0.40
2022-12-18T07:18:16.733Z,-0.40
2022-12-18T07:20:43.381Z,-0.40
2022-12-18T07:23:10.011Z,-0.40
2022-12-18T07:25:38.025Z,-0.50
2022-12-18T07:28:05.297Z,-0.40
2022-12-18T07:30:32.020Z,-0.50
2022-12-18T07:32:58.650Z,-0.40
2022-12-18T07:35:25.674Z,-0.40
2022-12-18T07:37:52.473Z,-0.50
2022-12-18T07:40:19.136Z,-0.50
2022-12-18T07:42:45.809Z,-0.50
2022-12-18T07:45:12.426Z,-0.50
2022-12-18T07:47:39.109Z,-0.50
2022-12-18T07:50:06.768Z,-0.50
2022-12-18T07:52:33.494Z,-0.50
2022-12-18T07:55:00.723Z,-0.50
2022-12-18T07:57:49.442Z,-0.50
2022-12-18T08:00:14.972Z,-0.50
2022-12-18T08:02:42.291Z,-0.50
2022-12-18T08:05:09.677Z,-0.50
2022-12-18T08:07:36.314Z,-0.50
2022-12-18T08:10:03.109Z,-0.50
2022-12-18T08:12:30.750Z,-0.50
2022-12-18T08:14:57.362Z,-0.50
2022-12-18T08:17:24.083Z,-0.50
2022-12-18T08:19:50.744Z,-0.50
2022-12-18T08:22:17.339Z,-0.50
2022-12-18T08:24:43.863Z,-0.50
2022-12-18T08:27:29.073Z,-0.50
2022-12-18T08:29:57.027Z,-0.50
2022-12-18T08:32:24.257Z,-0.50
2022-12-18T08:34:51.005Z,-0.50
2022-12-18T08:37:17.576Z,-0.40
2022-12-18T08:39:44.093Z,-0.40
2022-12-18T08:42:29.764Z,-0.40
2022-12-18T08:44:56.297Z,-0.40
2022-12-18T08:47:22.876Z,-0.40
2022-12-18T08:49:49.509Z,-0.40
2022-12-18T08:52:16.081Z,-0.40
2022-12-18T08:54:42.591Z,-0.40
2022-12-18T08:57:09.254Z,-0.40
2022-12-18T08:59:35.943Z,-0.40
2022-12-18T09:02:02.804Z,-0.40
2022-12-18T09:04:29.494Z,-0.30
2022-12-18T09:06:56.083Z,-0.30
2022-12-18T09:09:22.609Z,-0.30
2022-12-18T09:11:49.210Z,-0.30
2022-12-18T09:14:15.723Z,-0.30
2022-12-18T09:16:42.496Z,-0.30
2022-12-18T09:19:10.218Z,-0.30
2022-12-18T09:21:42.130Z,-0.20
2022-12-18T09:24:14.677Z,-0.20
2022-12-18T09:26:41.387Z,-0.20
2022-12-18T09:29:10.515Z,-0.20
2022-12-18T09:31:39.060Z,-0.20
2022-12-18T09:34:05.647Z,-0.20
2022-12-18T09:36:32.661Z,-0.20
2022-12-18T09:39:02.623Z,-0.20
2022-12-18T09:41:44.080Z,-0.20
2022-12-18T09:44:25.624Z,-0.10
2022-12-18T09:47:03.686Z,-0.10
2022-12-18T09:49:33.526Z,-0.10
2022-12-18T09:52:15.563Z,-0.10
2022-12-18T09:54:47.804Z,-0.10
2022-12-18T09:57:19.672Z,-0.10
2022-12-18T09:59:53.007Z,-0.10
2022-12-18T10:02:22.759Z,0.00
2022-12-18T10:05:07.943Z,0.00
2022-12-18T10:08:00.841Z,0.00
2022-12-18T10:10:53.236Z,0.00
2022-12-18T10:13:47.879Z,0.00
2022-12-18T10:16:20.589Z,0.00
2022-12-18T10:19:02.570Z,0.10
2022-12-18T10:21:52.350Z,0.10
2022-12-18T10:24:37.346Z,0.10
2022-12-18T10:27:25.894Z,0.10
2022-12-18T10:29:53.747Z,0.10
2022-12-18T10:32:23.382Z,0.10
2022-12-18T10:34:58.264Z,0.10
2022-12-18T10:37:29.564Z,0.20
2022-12-18T10:40:16.842Z,0.20
2022-12-18T10:42:58.945Z,0.20
2022-12-18T10:45:25.571Z,0.20
2022-12-18T10:47:52.172Z,0.20
2022-12-18T10:50:40.954Z,0.20
2022-12-18T10:53:23.837Z,0.20
2022-12-18T10:55:51.944Z,0.20
2022-12-18T10:58:33.852Z,0.20
2022-12-18T11:01:11.223Z,0.20
2022-12-18T11:03:51.412Z,0.30
2022-12-18T11:06:22.742Z,0.30
2022-12-18T11:09:21.838Z,0.20
2022-12-18T11:11:56.576Z,0.20
2022-12-18T11:14:26.466Z,0.30
2022-12-18T11:17:24.499Z,0.30
2022-12-18T11:19:42.498Z,0.30
2022-12-18T11:22:27.480Z,0.30
2022-12-18T11:25:33.032Z,0.40
2022-12-18T11:28:03.510Z,0.30
2022-12-18T11:30:38.128Z,0.40
2022-12-18T11:33:23.285Z,0.40
2022-12-18T11:35:56.431Z,0.40
2022-12-18T11:38:30.085Z,0.40
2022-12-18T11:41:15.710Z,0.40
2022-12-18T11:43:50.755Z,0.40
2022-12-18T11:46:30.793Z,0.40
2022-12-18T11:49:08.864Z,0.40
2022-12-18T11:52:01.743Z,0.40
2022-12-18T11:54:28.550Z,0.40
2022-12-18T11:57:21.339Z,0.50
2022-12-18T12:00:02.392Z,0.50
2022-12-18T12:02:40.430Z,0.50
2022-12-18T12:05:22.278Z,0.50
2022-12-18T12:08:19.694Z,0.50
2022-12-18T12:10:55.296Z,0.50
2022-12-18T12:13:40.054Z,0.60
2022-12-18T12:16:44.779Z,0.50
2022-12-18T12:19:39.170Z,0.60
2022-12-18T12:22:55.386Z,0.50
2022-12-18T12:26:03.552Z,0.60
2022-12-18T12:28:33.484Z,0.60
2022-12-18T12:31:24.719Z,0.50
2022-12-18T12:33:51.310Z,0.40
2022-12-18T12:36:30.495Z,0.50
2022-12-18T12:39:02.162Z,0.50
2022-12-18T12:41:51.921Z,0.50
2022-12-18T12:44:33.553Z,0.40
2022-12-18T12:47:07.111Z,0.50
2022-12-18T12:49:39.042Z,0.50
2022-12-18T12:52:13.816Z,0.60
2022-12-18T12:54:41.409Z,0.50
2022-12-18T12:57:24.645Z,0.60
2022-12-18T13:00:05.650Z,0.60
2022-12-18T13:02:35.372Z,0.70
2022-12-18T13:05:17.919Z,0.70
2022-12-18T13:07:53.084Z,0.70
2022-12-18T13:10:35.475Z,0.70
2022-12-18T13:13:17.900Z,0.70
2022-12-18T13:16:09.243Z,0.70
2022-12-18T13:18:36.565Z,0.70
2022-12-18T13:21:18.188Z,0.70
2022-12-18T13:23:45.849Z,0.70
2022-12-18T13:26:23.240Z,0.70
2022-12-18T13:28:56.275Z,0.70
2022-12-18T13:31:41.989Z,0.80
2022-12-18T13:34:26.912Z,0.80
2022-12-18T13:36:58.435Z,0.80
2022-12-18T13:39:36.074Z,0.80
2022-12-18T13:42:06.250Z,0.80
2022-12-18T13:47:41.257Z,0.80
2022-12-18T13:50:23.796Z,0.80
2022-12-18T13:52:52.093Z,0.80
2022-12-18T13:55:21.009Z,0.80
2022-12-18T13:57:48.313Z,0.90
2022-12-18T14:00:31.525Z,0.90
2022-12-18T14:02:59.921Z,0.80
2022-12-18T14:05:33.987Z,0.80
2022-12-18T14:08:11.607Z,0.90
2022-12-18T14:10:49.890Z,0.90
2022-12-18T14:13:25.092Z,0.90
2022-12-18T14:15:52.356Z,0.80
2022-12-18T14:18:40.998Z,0.90
2022-12-18T14:21:16.735Z,0.80
2022-12-18T14:23:43.895Z,0.80
2022-12-18T14:26:31.769Z,0.80
2022-12-18T14:29:02.020Z,0.80
2022-12-18T14:31:31.692Z,0.80
2022-12-18T14:33:58.696Z,0.80
2022-12-18T14:36:28.080Z,0.80
2022-12-18T14:38:56.945Z,0.90
2022-12-18T14:41:24.432Z,0.80
2022-12-18T14:43:53.330Z,0.90
2022-12-18T14:46:39.528Z,0.90
2022-12-18T14:49:29.394Z,0.90
2022-12-18T14:52:00.860Z,0.90
2022-12-18T14:54:29.217Z,0.80
2022-12-18T14:56:58.760Z,0.90
2022-12-18T14:59:27.180Z,0.80
2022-12-18T15:01:59.953Z,0.90
2022-12-18T15:04:33.498Z,0.90
2022-12-18T15:07:17.334Z,0.80
2022-12-18T15:10:21.213Z,0.90
2022-12-18T15:13:12.373Z,0.90
2022-12-18T15:15:39.306Z,0.90
2022-12-18T15:18:09.410Z,0.90
2022-12-18T15:20:52.064Z,0.80
2022-12-18T15:23:39.463Z,0.90
2022-12-18T15:26:11.555Z,0.80
2022-12-18T15:28:46.787Z,0.90
2022-12-18T15:31:13.428Z,0.80
2022-12-18T15:33:47.114Z,0.80
2022-12-18T15:36:17.600Z,0.80
2022-12-18T15:38:49.494Z,0.90
2022-12-18T15:41:24.202Z,0.80
2022-12-18T15:43:53.844Z,0.80
2022-12-18T15:46:25.012Z,0.80
2022-12-18T15:49:01.831Z,0.80
2022-12-18T15:51:35.251Z,0.80
2022-12-18T15:54:07.439Z,0.80
2022-12-18T15:56:52.506Z,0.80
2022-12-18T15:59:21.041Z,0.80
2022-12-18T16:01:50.304Z,0.80
2022-12-18T16:04:21.461Z,0.90
2022-12-18T16:07:13.994Z,0.80
2022-12-18T16:09:36.488Z,0.80
2022-12-18T16:12:03.369Z,0.80
2022-12-18T16:14:31.343Z,0.80
2022-12-18T16:17:03.627Z,0.80
2022-12-18T16:19:30.451Z,0.80
2022-12-18T16:21:59.066Z,0.80
2022-12-18T16:24:31.387Z,0.80
2022-12-18T16:27:00.438Z,0.80
2022-12-18T16:29:28.713Z,0.80
2022-12-18T16:31:59.951Z,0.80
2022-12-18T16:34:29.848Z,0.80
2022-12-18T16:37:06.167Z,0.80
2022-12-18T16:39:37.860Z,0.80
2022-12-18T16:42:07.504Z,0.80
2022-12-18T16:44:34.927Z,0.80
2022-12-18T16:47:03.326Z,0.80
2022-12-18T16:49:30.637Z,0.80
2022-12-18T16:51:57.522Z,0.80
2022-12-18T16:54:24.281Z,0.80
2022-12-18T16:56:52.026Z,0.80
2022-12-18T16:59:19.334Z,0.80
2022-12-18T17:01:47.511Z,0.80
2022-12-18T17:04:15.181Z,0.80
2022-12-18T17:06:46.233Z,0.80
2022-12-18T17:09:15.366Z,0.80
2022-12-18T17:11:42.124Z,0.80
2022-12-18T17:14:11.368Z,0.80
2022-12-18T17:16:38.168Z,0.80
2022-12-18T17:19:09.670Z,0.80
2022-12-18T17:21:40.383Z,0.80
2022-12-18T17:24:07.814Z,0.80
2022-12-18T17:26:34.671Z,0.80
2022-12-18T17:29:01.340Z,0.80
2022-12-18T17:31:29.774Z,0.80
2022-12-18T17:33:57.582Z,0.80
2022-12-18T17:36:28.477Z,0.80
2022-12-18T17:38:57.807Z,0.80
2022-12-18T17:41:25.570Z,0.90
2022-12-18T17:43:57.738Z,0.80
2022-12-18T17:46:25.803Z,0.80
2022-12-18T17:48:52.903Z,0.80
2022-12-18T17:51:19.513Z,0.80
2022-12-18T17:53:46.259Z,0.90
2022-12-18T17:56:15.198Z,0.90
2022-12-18T17:58:42.379Z,0.80
2022-12-18T18:01:09.479Z,0.80
2022-12-18T18:03:39.026Z,0.80
2022-12-18T18:06:06.199Z,0.80
2022-12-18T18:08:34.510Z,0.80
2022-12-18T18:11:29.090Z,0.80
2022-12-18T18:14:01.645Z,0.90
2022-12-18T18:16:40.857Z,0.90
2022-12-18T18:19:10.260Z,0.90
2022-12-18T18:21:41.716Z,0.90
2022-12-18T18:24:09.621Z,0.90
2022-12-18T18:26:37.190Z,0.90
2022-12-18T18:29:06.434Z,0.90
2022-12-18T18:31:40.953Z,0.90
2022-12-18T18:34:08.615Z,0.90
2022-12-18T18:36:35.276Z,0.90
2022-12-18T18:39:02.232Z,0.90
2022-12-18T18:41:30.550Z,1.00
2022-12-18T18:43:58.681Z,0.90
2022-12-18T18:46:26.007Z,0.90
2022-12-18T18:48:53.104Z,1.00
2022-12-18T18:51:21.420Z,1.00
2022-12-18T18:53:50.401Z,0.90
2022-12-18T18:59:05.278Z,0.90
2022-12-18T19:01:32.120Z,1.00
2022-12-18T19:03:58.827Z,1.00
2022-12-18T19:06:28.427Z,1.00
2022-12-18T19:08:56.843Z,1.00
2022-12-18T19:11:43.418Z,1.00
2022-12-18T19:14:12.699Z,1.00
2022-12-18T19:16:40.190Z,1.00
2022-12-18T19:19:07.817Z,1.00
2022-12-18T19:21:35.331Z,1.00
2022-12-18T19:24:02.745Z,1.00
2022-12-18T19:26:29.680Z,0.90
2022-12-18T19:29:05.146Z,1.00
2022-12-18T19:31:36.089Z,1.00
2022-12-18T19:34:07.261Z,1.10
2022-12-18T19:36:36.541Z,1.10
2022-12-18T19:39:17.970Z,1.10
2022-12-18T19:41:46.138Z,1.10
2022-12-18T19:44:15.003Z,1.10
2022-12-18T19:46:43.024Z,1.10
2022-12-18T19:49:10.812Z,1.10
2022-12-18T19:51:38.508Z,1.10
2022-12-18T19:54:05.741Z,1.10
2022-12-18T19:56:34.822Z,1.10
2022-12-18T19:59:02.738Z,1.20
2022-12-18T20:01:32.187Z,1.10
2022-12-18T20:04:00.328Z,1.10
2022-12-18T20:06:33.771Z,1.10
2022-12-18T20:09:03.303Z,1.20
2022-12-18T20:11:30.930Z,1.10
2022-12-18T20:13:58.337Z,1.20
2022-12-18T20:16:24.973Z,1.20
2022-12-18T20:18:52.445Z,1.20
2022-12-18T20:21:20.915Z,1.10
2022-12-18T20:23:47.567Z,1.10
2022-12-18T20:26:14.299Z,1.20
2022-12-18T20:28:41.027Z,1.20
2022-12-18T20:31:10.365Z,1.20
2022-12-18T20:33:40.458Z,1.20
2022-12-18T20:36:11.218Z,1.20
2022-12-18T20:38:39.200Z,1.20
2022-12-18T20:41:11.846Z,1.30
2022-12-18T20:43:39.681Z,1.20
2022-12-18T20:46:09.116Z,1.20
2022-12-18T20:48:36.097Z,1.20
2022-12-18T20:51:08.611Z,1.30
2022-12-18T20:53:35.671Z,1.20
2022-12-18T20:56:15.031Z,1.20
2022-12-18T20:58:46.067Z,1.20
2022-12-18T21:01:18.309Z,1.20
2022-12-18T21:03:46.069Z,1.30
2022-12-18T21:06:13.843Z,1.30
2022-12-18T21:08:40.534Z,1.30
2022-12-18T21:11:40.724Z,1.30
2022-12-18T21:14:31.069Z,1.30
2022-12-18T21:17:00.820Z,1.30
2022-12-18T21:19:28.358Z,1.30
2022-12-18T21:21:56.829Z,1.30
2022-12-18T21:24:24.077Z,1.30
2022-12-18T21:26:51.315Z,1.30
2022-12-18T21:29:21.060Z,1.30
2022-12-18T21:31:48.468Z,1.30
2022-12-18T21:34:25.478Z,1.40
2022-12-18T21:36:52.713Z,1.40
2022-12-18T21:39:19.948Z,1.40
2022-12-18T21:42:08.699Z,1.40
2022-12-18T21:44:36.151Z,1.40
2022-12-18T21:47:21.848Z,1.40
2022-12-18T21:49:49.081Z,1.40
2022-12-18T21:52:15.734Z,1.40
2022-12-18T21:54:42.348Z,1.40
2022-12-18T21:57:10.918Z,1.40
2022-12-18T21:59:40.638Z,1.40
2022-12-18T22:02:13.860Z,1.40
2022-12-18T22:04:41.582Z,1.40
2022-12-18T22:07:08.485Z,1.50
2022-12-18T22:09:36.779Z,1.50
2022-12-18T22:12:03.592Z,1.50
2022-12-18T22:14:30.273Z,1.50
2022-12-18T22:16:57.471Z,1.60
2022-12-18T22:19:25.547Z,1.60
2022-12-18T22:21:52.477Z,1.60
2022-12-18T22:24:24.798Z,1.60
2022-12-18T22:27:01.631Z,1.60
2022-12-18T22:29:47.257Z,1.60
2022-12-18T22:32:17.028Z,1.70
2022-12-18T22:34:49.546Z,1.70
2022-12-18T22:37:16.123Z,1.70
2022-12-18T22:39:42.784Z,1.70
2022-12-18T22:42:09.956Z,1.70
2022-12-18T22:44:36.547Z,1.70
2022-12-18T22:47:06.305Z,1.70
2022-12-18T22:49:35.056Z,1.70
2022-12-18T22:52:03.391Z,1.80
2022-12-18T22:54:30.126Z,1.80
2022-12-18T22:56:57.097Z,1.80
2022-12-18T22:59:23.889Z,1.80
2022-12-18T23:01:54.159Z,1.80
2022-12-18T23:04:31.990Z,1.90
2022-12-18T23:07:05.255Z,1.90
2022-12-18T23:09:32.650Z,1.90
2022-12-18T23:11:59.319Z,1.90
2022-12-18T23:14:26.245Z,1.90
2022-12-18T23:16:53.234Z,1.90
2022-12-18T23:19:20.482Z,2.00
2022-12-18T23:21:47.389Z,2.00
2022-12-18T23:24:14.163Z,2.00
2022-12-18T23:26:41.254Z,2.00
2022-12-18T23:29:08.101Z,2.00
2022-12-18T23:31:37.146Z,2.10
2022-12-18T23:34:05.080Z,2.10
2022-12-18T23:36:33.091Z,2.10
2022-12-18T23:39:11.968Z,2.10
2022-12-18T23:41:42.013Z,2.10
2022-12-18T23:44:10.156Z,2.10
2022-12-18T23:46:37.683Z,2.20
2022-12-18T23:49:05.838Z,2.20
2022-12-18T23:51:33.300Z,2.20
2022-12-18T23:54:02.378Z,2.20
2022-12-18T23:56:29.972Z,2.20
2022-12-18T23:58:56.986Z,2.20
